createdAt,value
2023-05-23T00:00:15.689Z,16.40
2023-05-23T00:05:19.166Z,16.30
2023-05-23T00:10:22.901Z,16.20
2023-05-23T00:15:25.891Z,16.20
2023-05-23T00:20:30.560Z,16.10
2023-05-23T00:25:36.712Z,16.10
2023-05-23T00:30:40.175Z,16.10
2023-05-23T00:35:43.474Z,16.00
2023-05-23T00:40:46.768Z,16.00
2023-05-23T00:45:50.048Z,15.90
2023-05-23T00:50:54.491Z,15.90
2023-05-23T00:55:58.101Z,16.00
2023-05-23T01:01:01.940Z,16.00
2023-05-23T01:06:04.893Z,16.10
2023-05-23T01:11:22.159Z,16.10
2023-05-23T01:16:49.148Z,16.10
2023-05-23T01:21:55.466Z,16.10
2023-05-23T01:27:39.282Z,16.00
2023-05-23T01:32:43.677Z,15.90
2023-05-23T01:37:46.722Z,15.80
2023-05-23T01:42:50.264Z,15.60
2023-05-23T01:47:55.083Z,15.50
2023-05-23T01:52:58.980Z,15.30
2023-05-23T01:58:03.113Z,15.30
2023-05-23T02:03:06.464Z,15.30
2023-05-23T02:08:09.609Z,15.40
2023-05-23T02:13:12.662Z,15.40
2023-05-23T02:18:15.562Z,15.40
2023-05-23T02:23:18.542Z,15.30
2023-05-23T02:28:22.401Z,15.20
2023-05-23T02:33:25.434Z,15.10
2023-05-23T02:38:29.631Z,15.00
2023-05-23T02:43:32.462Z,15.10
2023-05-23T02:48:35.364Z,15.10
2023-05-23T02:53:39.119Z,15.10
2023-05-23T02:58:42.614Z,15.10
2023-05-23T03:03:46.137Z,15.10
2023-05-23T03:08:49.320Z,15.10
2023-05-23T03:13:52.316Z,15.00
2023-05-23T03:18:55.560Z,15.00
2023-05-23T03:23:58.455Z,15.00
2023-05-23T03:29:02.749Z,15.00
2023-05-23T03:34:05.869Z,15.00
2023-05-23T03:39:09.189Z,15.00
2023-05-23T03:44:12.496Z,15.00
2023-05-23T03:49:15.566Z,15.10
2023-05-23T03:54:19.223Z,15.00
2023-05-23T03:59:22.363Z,15.00
2023-05-23T04:04:26.374Z,15.00
2023-05-23T04:09:29.525Z,15.00
2023-05-23T04:14:33.708Z,15.00
2023-05-23T04:19:36.781Z,15.10
2023-05-23T04:24:40.022Z,15.30
2023-05-23T04:29:44.397Z,15.40
2023-05-23T04:34:47.541Z,15.60
2023-05-23T04:39:51.396Z,15.70
2023-05-23T04:44:56.972Z,15.80
2023-05-23T04:50:00.609Z,15.90
2023-05-23T04:55:04.307Z,16.00
2023-05-23T05:00:11.664Z,16.10
2023-05-23T05:05:14.668Z,16.20
2023-05-23T05:10:18.062Z,16.40
2023-05-23T05:15:21.110Z,16.60
2023-05-23T05:20:24.118Z,16.90
2023-05-23T05:25:31.929Z,17.10
2023-05-23T05:30:38.915Z,17.40
2023-05-23T05:35:42.324Z,17.60
2023-05-23T05:40:45.748Z,17.80
2023-05-23T05:45:49.117Z,18.00
2023-05-23T05:50:51.976Z,18.30
2023-05-23T05:55:55.521Z,18.50
2023-05-23T06:00:59.205Z,18.50
2023-05-23T06:06:02.217Z,18.70
2023-05-23T06:11:05.605Z,19.00
2023-05-23T06:16:08.785Z,19.20
2023-05-23T06:21:11.859Z,19.50
2023-05-23T06:26:14.884Z,19.80
2023-05-23T06:31:18.087Z,19.90
2023-05-23T06:36:21.138Z,20.10
2023-05-23T06:41:24.169Z,20.20
2023-05-23T06:46:27.465Z,20.40
2023-05-23T06:51:31.422Z,20.60
2023-05-23T06:56:37.213Z,20.70
2023-05-23T07:01:40.913Z,20.90
2023-05-23T07:06:43.951Z,21.10
2023-05-23T07:11:46.825Z,21.40
2023-05-23T07:16:49.809Z,21.60
2023-05-23T07:21:52.653Z,21.90
2023-05-23T07:26:55.792Z,22.20
2023-05-23T07:31:59.677Z,22.40
2023-05-23T07:37:02.718Z,22.60
2023-05-23T07:42:05.889Z,22.80
2023-05-23T07:47:08.732Z,23.00
2023-05-23T07:52:11.759Z,23.10
2023-05-23T07:57:16.770Z,23.30
2023-05-23T08:02:20.981Z,23.40
2023-05-23T08:07:24.138Z,23.50
2023-05-23T08:12:27.459Z,23.70
2023-05-23T08:17:30.733Z,23.90
2023-05-23T08:22:33.944Z,24.00
2023-05-23T08:27:36.939Z,24.10
2023-05-23T08:32:39.876Z,24.10
2023-05-23T08:37:43.160Z,24.30
2023-05-23T08:42:50.076Z,24.50
2023-05-23T08:47:54.706Z,24.70
2023-05-23T08:52:59.662Z,24.90
2023-05-23T08:58:04.068Z,25.10
2023-05-23T09:03:09.057Z,25.40
2023-05-23T09:08:13.317Z,25.50
2023-05-23T09:13:23.627Z,25.80
2023-05-23T09:18:27.985Z,26.00
2023-05-23T09:23:35.657Z,26.10
2023-05-23T09:28:40.545Z,26.30
2023-05-23T09:33:48.510Z,26.40
2023-05-23T09:38:52.740Z,26.60
2023-05-23T09:43:56.563Z,26.80
2023-05-23T09:49:00.393Z,26.90
2023-05-23T09:54:03.531Z,27.10
2023-05-23T09:59:08.764Z,27.30
2023-05-23T10:04:12.901Z,27.60
2023-05-23T10:09:19.202Z,27.60
2023-05-23T10:14:22.191Z,27.50
2023-05-23T10:19:47.660Z,27.40
2023-05-23T10:24:51.402Z,27.30
2023-05-23T10:29:54.702Z,27.20
2023-05-23T10:35:04.605Z,27.20
2023-05-23T10:40:21.460Z,27.00
2023-05-23T10:45:25.254Z,27.00
2023-05-23T10:50:37.453Z,27.40
2023-05-23T10:55:40.678Z,27.70
2023-05-23T11:01:07.931Z,28.10
2023-05-23T11:06:32.953Z,28.40
2023-05-23T11:11:52.235Z,28.70
2023-05-23T11:16:56.130Z,29.00
2023-05-23T11:22:02.713Z,29.10
2023-05-23T11:27:12.626Z,29.30
2023-05-23T11:32:17.777Z,29.30
2023-05-23T11:37:25.942Z,29.30
2023-05-23T11:42:30.176Z,29.20
2023-05-23T11:47:40.660Z,29.00
2023-05-23T11:52:44.667Z,28.90
2023-05-23T11:57:49.350Z,28.90
2023-05-23T12:02:52.377Z,28.70
2023-05-23T12:07:55.492Z,28.40
2023-05-23T12:12:58.658Z,28.00
2023-05-23T12:18:02.965Z,27.60
2023-05-23T12:23:06.630Z,27.40
2023-05-23T12:28:13.669Z,27.30
2023-05-23T12:33:20.214Z,27.50
2023-05-23T12:38:23.830Z,27.60
2023-05-23T12:43:27.057Z,27.90
2023-05-23T12:48:30.191Z,28.20
2023-05-23T12:53:33.304Z,28.10
2023-05-23T12:58:36.407Z,27.80
2023-05-23T13:03:39.685Z,27.90
2023-05-23T13:08:44.165Z,28.40
2023-05-23T13:13:47.404Z,28.70
2023-05-23T13:18:50.497Z,29.00
2023-05-23T13:23:53.728Z,29.20
2023-05-23T13:28:56.577Z,29.50
2023-05-23T13:33:59.663Z,29.40
2023-05-23T13:39:05.997Z,29.50
2023-05-23T13:44:09.123Z,29.60
2023-05-23T13:49:12.389Z,29.40
2023-05-23T13:54:16.007Z,29.30
2023-05-23T13:59:21.343Z,29.30
2023-05-23T14:04:24.309Z,29.40
2023-05-23T14:09:27.389Z,29.50
2023-05-23T14:14:30.491Z,29.80
2023-05-23T14:19:33.677Z,29.80
2023-05-23T14:24:37.054Z,29.80
2023-05-23T14:29:40.209Z,30.00
2023-05-23T14:34:43.154Z,30.00
2023-05-23T14:39:46.300Z,30.20
2023-05-23T14:44:49.227Z,30.50
2023-05-23T14:49:52.127Z,30.70
2023-05-23T14:54:55.195Z,31.00
2023-05-23T14:59:58.291Z,31.40
2023-05-23T15:05:01.403Z,31.30
2023-05-23T15:10:06.799Z,31.40
2023-05-23T15:15:10.771Z,31.60
2023-05-23T15:20:13.850Z,31.60
2023-05-23T15:25:19.041Z,31.60
2023-05-23T15:30:25.153Z,31.60
2023-05-23T15:35:28.186Z,31.10
2023-05-23T15:40:31.181Z,30.40
2023-05-23T15:45:34.255Z,29.70
2023-05-23T15:50:37.494Z,29.10
2023-05-23T15:55:42.573Z,28.70
2023-05-23T16:00:45.887Z,28.30
2023-05-23T16:05:48.973Z,28.00
2023-05-23T16:10:52.416Z,27.70
2023-05-23T16:15:55.544Z,27.50
2023-05-23T16:20:58.658Z,27.30
2023-05-23T16:26:01.674Z,27.20
2023-05-23T16:31:04.733Z,26.90
2023-05-23T16:36:07.957Z,26.50
2023-05-23T16:41:11.011Z,26.30
2023-05-23T16:46:14.410Z,26.00
2023-05-23T16:51:17.571Z,25.90
2023-05-23T16:56:21.604Z,25.70
2023-05-23T17:01:24.600Z,25.50
2023-05-23T17:06:27.647Z,25.30
2023-05-23T17:11:31.024Z,24.70
2023-05-23T17:16:34.488Z,23.80
2023-05-23T17:21:37.798Z,22.90
2023-05-23T17:26:40.849Z,22.20
2023-05-23T17:31:44.465Z,21.70
2023-05-23T17:36:47.362Z,21.40
2023-05-23T17:41:50.330Z,21.10
2023-05-23T17:46:53.529Z,20.80
2023-05-23T17:51:56.948Z,20.60
2023-05-23T17:56:59.763Z,20.40
2023-05-23T18:02:04.830Z,20.20
2023-05-23T18:07:12.947Z,20.10
2023-05-23T18:12:16.772Z,19.90
2023-05-23T18:17:19.968Z,19.80
2023-05-23T18:22:24.762Z,19.80
2023-05-23T18:27:27.737Z,19.80
2023-05-23T18:32:31.514Z,19.70
2023-05-23T18:37:34.517Z,19.60
2023-05-23T18:42:37.746Z,19.40
2023-05-23T18:47:40.747Z,19.00
2023-05-23T18:52:43.719Z,18.50
2023-05-23T18:57:46.809Z,18.10
2023-05-23T19:02:49.943Z,17.90
2023-05-23T19:07:53.092Z,17.80
2023-05-23T19:12:56.930Z,17.80
2023-05-23T19:17:59.781Z,17.90
2023-05-23T19:23:03.186Z,18.00
2023-05-23T19:28:06.632Z,18.00
2023-05-23T19:33:10.193Z,18.10
2023-05-23T19:38:13.345Z,18.20
2023-05-23T19:43:16.225Z,18.20
2023-05-23T19:48:19.326Z,18.20
2023-05-23T19:53:23.008Z,18.10
2023-05-23T19:58:26.021Z,18.10
2023-05-23T20:03:29.599Z,18.10
2023-05-23T20:08:32.936Z,18.20
2023-05-23T20:13:37.804Z,18.10
2023-05-23T20:18:43.149Z,18.10
2023-05-23T20:23:46.516Z,18.10
2023-05-23T20:28:49.776Z,18.10
2023-05-23T20:33:53.028Z,18.10
2023-05-23T20:38:56.294Z,18.10
2023-05-23T20:44:01.798Z,18.10
2023-05-23T20:49:05.003Z,18.10
2023-05-23T20:54:08.058Z,18.00
2023-05-23T20:59:12.318Z,18.00
2023-05-23T21:04:18.132Z,17.90
2023-05-23T21:09:21.881Z,17.80
2023-05-23T21:14:25.414Z,17.70
2023-05-23T21:19:28.272Z,17.60
2023-05-23T21:24:31.608Z,17.50
2023-05-23T21:29:35.382Z,17.40
2023-05-23T21:34:38.411Z,17.30
2023-05-23T21:39:51.237Z,17.20
2023-05-23T21:44:55.732Z,17.10
2023-05-23T21:49:58.747Z,17.00
2023-05-23T21:55:01.969Z,17.00
2023-05-23T22:00:05.878Z,17.00
2023-05-23T22:05:10.650Z,17.00
2023-05-23T22:10:13.697Z,17.00
2023-05-23T22:15:16.836Z,16.90
2023-05-23T22:20:20.731Z,17.00
2023-05-23T22:25:25.126Z,17.00
2023-05-23T22:30:28.914Z,17.10
2023-05-23T22:35:32.180Z,17.10
2023-05-23T22:40:35.056Z,17.10
2023-05-23T22:45:42.608Z,17.10
2023-05-23T22:50:45.901Z,17.10
2023-05-23T22:55:49.953Z,17.00
2023-05-23T23:00:53.020Z,16.80
2023-05-23T23:05:57.673Z,16.70
2023-05-23T23:11:00.747Z,16.70
2023-05-23T23:16:04.700Z,16.60
2023-05-23T23:21:07.960Z,16.60
2023-05-23T23:26:11.844Z,16.60
2023-05-23T23:31:14.910Z,16.60
2023-05-23T23:36:17.877Z,16.50
2023-05-23T23:41:21.374Z,16.40
2023-05-23T23:46:24.500Z,16.40
2023-05-23T23:51:27.496Z,16.40
2023-05-23T23:56:30.407Z,16.40
